Time;durP1;ratioP1;P1;durP2;ratioP2;P2;SDS_P1;SDS_P2;PMS_P1;PMS_P2;Temp;Humidity;BMP_temperature;BMP_pressure;BME280_temperature;BME280_humidity;BME280_pressure;Samples;Min_cycle;Max_cycle;Signal;HPM_P1;HPM_P2
2021/03/02 00:00:31;;;;;;;17.50;8.27;;;;;;;2.64;73.46;102312.86;126275;1096;104277;-79
2021/03/02 00:03:12;;;;;;;16.93;8.63;;;;;;;2.62;73.33;102304.03;126200;1096;104259;-80
2021/03/02 00:05:40;;;;;;;14.37;7.63;;;;;;;2.62;73.35;102304.03;126235;1096;104139;-78
2021/03/02 00:08:09;;;;;;;15.63;7.50;;;;;;;2.61;73.06;102297.01;126316;1096;104146;-78
2021/03/02 00:10:42;;;;;;;14.00;6.97;;;;;;;2.61;72.89;102294.41;126326;1096;104210;-79
2021/03/02 00:13:12;;;;;;;14.95;7.30;;;;;;;2.60;73.58;102300.36;126316;1096;104692;-78
2021/03/02 00:15:41;;;;;;;14.20;7.23;;;;;;;2.58;72.99;102292.43;126310;1096;104133;-79
2021/03/02 00:18:14;;;;;;;15.47;7.17;;;;;;;2.58;73.64;102289.84;126297;1095;104191;-80
2021/03/02 00:20:45;;;;;;;18.53;7.97;;;;;;;2.56;73.05;102286.20;126414;1096;104182;-79
2021/03/02 00:23:19;;;;;;;14.87;6.70;;;;;;;2.56;73.10;102282.70;126420;1096;104268;-79
2021/03/02 00:25:51;;;;;;;13.27;6.17;;;;;;;2.57;73.43;102281.91;126426;1096;104172;-79
2021/03/02 00:28:25;;;;;;;13.40;5.97;;;;;;;2.53;73.40;102280.72;126375;1096;104287;-79
2021/03/02 00:30:57;;;;;;;15.57;7.10;;;;;;;2.54;73.48;102267.00;126426;1095;104149;-79
2021/03/02 00:33:28;;;;;;;10.93;5.57;;;;;;;2.53;73.35;102265.17;126386;1096;104165;-79
2021/03/02 00:35:57;;;;;;;12.87;6.43;;;;;;;2.54;73.46;102264.41;126392;1096;104200;-80
2021/03/02 00:38:26;;;;;;;10.53;5.30;;;;;;;2.54;72.87;102261.82;126412;1096;104271;-79
2021/03/02 00:40:55;;;;;;;10.73;5.20;;;;;;;2.57;73.72;102263.77;126358;1096;104059;-79
2021/03/02 00:43:24;;;;;;;10.40;5.50;;;;;;;2.62;73.35;102257.37;126337;1096;104150;-79
2021/03/02 00:45:52;;;;;;;10.60;5.60;;;;;;;2.64;73.40;102243.77;126384;1096;104246;-79
2021/03/02 00:48:22;;;;;;;11.47;5.33;;;;;;;2.65;73.41;102249.86;126442;1096;104267;-79
2021/03/02 00:50:51;;;;;;;11.10;5.40;;;;;;;2.67;73.59;102248.34;126399;1096;104216;-79
2021/03/02 00:53:21;;;;;;;12.27;5.80;;;;;;;2.65;73.60;102235.24;126278;1096;104137;-79
2021/03/02 00:55:50;;;;;;;11.13;5.67;;;;;;;2.64;73.51;102240.28;126413;1096;104127;-78
2021/03/02 00:58:19;;;;;;;10.77;5.53;;;;;;;2.61;73.42;102233.11;126359;1096;104220;-78
2021/03/02 01:00:49;;;;;;;10.30;5.57;;;;;;;2.61;73.77;102232.21;126364;1096;104198;-79
2021/03/02 01:03:18;;;;;;;9.97;5.10;;;;;;;2.60;73.60;102228.72;126290;1096;104418;-79
2021/03/02 01:05:47;;;;;;;9.47;5.43;;;;;;;2.64;73.78;102225.63;126270;1096;104245;-79
2021/03/02 01:08:24;;;;;;;12.73;5.40;;;;;;;2.70;73.42;102220.13;126332;1096;104697;-79
2021/03/02 01:10:53;;;;;;;10.70;5.27;;;;;;;2.72;73.41;102218.58;126418;1096;104265;-79
2021/03/02 01:13:25;;;;;;;13.73;6.33;;;;;;;2.70;73.62;102226.22;126425;1096;104153;-79
2021/03/02 01:15:54;;;;;;;15.43;6.33;;;;;;;2.71;74.22;102224.52;126356;1096;104185;-79
2021/03/02 01:18:23;;;;;;;11.77;5.87;;;;;;;2.69;74.03;102215.70;126315;1096;104194;-79
2021/03/02 01:20:52;;;;;;;15.80;7.27;;;;;;;2.65;73.89;102216.16;126347;1096;102967;-79
2021/03/02 01:23:22;;;;;;;13.77;6.47;;;;;;;2.64;73.56;102216.95;126322;1096;104160;-79
2021/03/02 01:25:50;;;;;;;15.10;6.30;;;;;;;2.64;73.23;102214.36;126376;1096;104623;-79
2021/03/02 01:28:20;;;;;;;13.73;6.73;;;;;;;2.66;73.75;102216.31;126360;1096;104175;-79
2021/03/02 01:30:48;;;;;;;13.30;6.30;;;;;;;2.67;73.71;102210.38;126368;1096;104207;-79
2021/03/02 01:33:18;;;;;;;13.43;6.70;;;;;;;2.66;73.39;102208.53;126424;1096;104165;-79
2021/03/02 01:35:47;;;;;;;13.87;7.00;;;;;;;2.67;73.78;102212.06;126401;1095;104149;-79
2021/03/02 01:38:16;;;;;;;14.03;6.27;;;;;;;2.66;73.19;102208.53;126433;1096;104169;-79
2021/03/02 01:40:45;;;;;;;15.03;6.90;;;;;;;2.62;73.22;102208.12;126344;1096;104289;-79
2021/03/02 01:43:15;;;;;;;14.57;6.90;;;;;;;2.63;73.92;102204.75;126380;1096;104366;-80
2021/03/02 01:45:44;;;;;;;15.77;7.30;;;;;;;2.64;73.43;102211.77;126426;1096;104223;-79
2021/03/02 01:48:13;;;;;;;12.73;6.17;;;;;;;2.64;74.30;102198.81;126354;1096;104249;-79
2021/03/02 01:50:42;;;;;;;14.90;6.70;;;;;;;2.65;73.77;102200.61;126380;1096;104726;-79
2021/03/02 01:53:11;;;;;;;13.17;6.60;;;;;;;2.66;74.03;102198.16;126417;1096;104382;-79
2021/03/02 01:55:40;;;;;;;13.35;6.45;;;;;;;2.69;73.86;102188.09;126351;1095;104280;-79
2021/03/02 01:58:09;;;;;;;15.00;6.77;;;;;;;2.77;74.11;102190.50;126351;1096;104239;-79
2021/03/02 02:00:39;;;;;;;16.47;6.93;;;;;;;2.82;73.82;102192.77;126348;1095;104264;-79
2021/03/02 02:03:32;;;;;;;13.10;6.65;;;;;;;2.80;74.05;102195.98;126411;1095;104063;-79
2021/03/02 02:06:06;;;;;;;12.17;6.20;;;;;;;2.74;74.00;102193.70;126411;1096;104150;-78
2021/03/02 02:08:40;;;;;;;;;;;;;;;2.71;73.91;102196.01;126333;1096;104136;-78
2021/03/02 02:11:17;;;;;;;11.97;6.00;;;;;;;2.67;73.87;102193.91;126320;1096;104287;-78
2021/03/02 02:13:52;;;;;;;14.23;6.60;;;;;;;2.66;73.47;102192.98;126316;1096;104139;-79
2021/03/02 02:16:27;;;;;;;13.37;6.10;;;;;;;2.67;73.43;102184.45;126406;1096;104242;-79
2021/03/02 02:18:57;;;;;;;12.67;6.40;;;;;;;2.67;74.05;102186.14;126340;1096;102073;-79
2021/03/02 02:21:38;;;;;;;13.27;6.13;;;;;;;2.67;73.87;102180.95;126355;1096;104114;-79
2021/03/02 02:24:16;;;;;;;14.43;6.80;;;;;;;2.63;73.32;102186.61;126379;1096;104210;-79
2021/03/02 02:26:52;;;;;;;14.97;6.77;;;;;;;2.59;74.13;102187.11;126343;1096;104213;-78
2021/03/02 02:29:25;;;;;;;13.57;7.03;;;;;;;2.57;73.40;102198.98;126302;1096;104140;-78
2021/03/02 02:31:55;;;;;;;15.30;7.13;;;;;;;2.55;73.90;102183.29;126321;1096;104137;-79
2021/03/02 02:34:25;;;;;;;13.37;6.93;;;;;;;2.55;74.12;102187.57;126289;1096;104210;-79
2021/03/02 02:36:58;;;;;;;14.33;6.60;;;;;;;2.58;73.97;102187.86;126414;1096;104153;-79
2021/03/02 02:39:29;;;;;;;14.73;7.07;;;;;;;2.60;73.56;102188.91;126381;1095;104582;-79
2021/03/02 02:41:59;;;;;;;15.50;6.77;;;;;;;2.60;74.11;102191.50;126295;1096;104274;-79
2021/03/02 02:44:30;;;;;;;14.87;6.80;;;;;;;2.55;74.01;102182.39;126343;1096;104185;-79
2021/03/02 02:47:00;;;;;;;14.43;7.03;;;;;;;2.52;74.06;102182.99;126389;1096;104211;-79
2021/03/02 02:49:31;;;;;;;15.87;6.70;;;;;;;2.51;73.75;102181.19;126323;1096;104195;-78
2021/03/02 02:52:00;;;;;;;17.47;7.10;;;;;;;2.53;73.99;102178.75;126353;1096;104146;-77
2021/03/02 02:54:29;;;;;;;15.30;6.80;;;;;;;2.53;73.97;102174.47;126268;1096;104178;-78
2021/03/02 02:56:59;;;;;;;13.57;6.57;;;;;;;2.56;73.95;102182.53;126310;1094;104488;-78
2021/03/02 02:59:33;;;;;;;16.33;7.33;;;;;;;2.56;73.87;102179.04;126389;1096;104200;-79
2021/03/02 03:02:06;;;;;;;15.60;6.80;;;;;;;2.54;73.79;102172.77;126275;1096;104573;-79
2021/03/02 03:04:40;;;;;;;13.90;6.97;;;;;;;2.53;74.17;102169.28;126305;1096;104233;-78
2021/03/02 03:07:12;;;;;;;;;;;;;;;2.51;74.23;102165.64;126358;1096;104152;-78
2021/03/02 03:09:43;;;;;;;14.70;6.53;;;;;;;2.49;73.83;102162.91;126369;1096;104136;-79
2021/03/02 03:12:15;;;;;;;16.10;7.30;;;;;;;2.53;74.31;102164.09;126341;1096;104175;-79
2021/03/02 03:15:07;;;;;;;12.77;6.33;;;;;;;2.58;74.21;102167.12;126410;1096;104152;-79
2021/03/02 03:17:44;;;;;;;13.90;6.87;;;;;;;2.59;74.09;102166.38;126319;1096;104628;-79
2021/03/02 03:20:14;;;;;;;14.20;6.93;;;;;;;2.58;74.06;102162.84;126398;1096;104143;-79
2021/03/02 03:22:44;;;;;;;13.73;6.30;;;;;;;2.58;73.58;102169.72;126288;1096;104084;-79
2021/03/02 03:25:14;;;;;;;12.90;6.40;;;;;;;2.56;74.27;102168.67;126382;1096;104268;-79
2021/03/02 03:27:46;;;;;;;14.00;6.97;;;;;;;2.53;74.04;102166.69;126342;1096;104152;-79
2021/03/02 03:30:17;;;;;;;13.90;6.80;;;;;;;2.51;74.11;102165.64;126405;1096;104862;-79
2021/03/02 03:32:51;;;;;;;14.10;6.23;;;;;;;2.51;74.19;102166.55;126314;1096;104141;-79
2021/03/02 03:35:21;;;;;;;15.37;6.90;;;;;;;2.53;74.38;102161.52;126321;1095;104140;-79
2021/03/02 03:37:50;;;;;;;12.43;6.20;;;;;;;2.57;74.27;102166.23;126305;1096;104143;-79
2021/03/02 03:40:23;;;;;;;14.47;6.57;;;;;;;2.58;74.24;102168.03;126399;1096;104181;-79
2021/03/02 03:42:53;;;;;;;15.83;7.03;;;;;;;2.56;74.19;102166.98;126371;1096;104650;-78
2021/03/02 03:45:22;;;;;;;15.63;6.80;;;;;;;2.53;74.04;102163.20;126451;1096;101690;-79
2021/03/02 03:47:51;;;;;;;15.03;6.73;;;;;;;2.50;74.09;102163.81;126372;1095;104140;-79
2021/03/02 03:50:20;;;;;;;16.40;7.15;;;;;;;2.48;74.81;102163.66;126346;1096;104271;-79
2021/03/02 03:52:53;;;;;;;14.37;6.50;;;;;;;2.48;74.27;102161.07;126343;1096;104226;-79
2021/03/02 03:55:28;;;;;;;14.73;6.97;;;;;;;2.50;75.01;102156.94;126317;1096;104191;-79
2021/03/02 03:57:57;;;;;;;14.07;6.83;;;;;;;2.57;74.08;102144.56;126275;1096;104216;-79
2021/03/02 04:00:27;;;;;;;15.40;6.80;;;;;;;2.66;74.92;102146.33;126425;1095;104360;-80
2021/03/02 04:02:56;;;;;;;13.13;6.40;;;;;;;2.77;75.33;102143.84;126214;1096;104216;-78
2021/03/02 04:05:25;;;;;;;12.93;6.43;;;;;;;2.82;74.63;102153.88;126176;1096;104168;-78
2021/03/02 04:07:54;;;;;;;14.20;6.50;;;;;;;2.83;74.72;102140.12;126324;1096;104136;-79
2021/03/02 04:10:23;;;;;;;13.63;6.97;;;;;;;2.84;74.29;102146.25;126375;1096;104136;-78
2021/03/02 04:12:52;;;;;;;14.27;6.60;;;;;;;2.86;74.57;102145.59;126234;1096;104175;-79
2021/03/02 04:15:21;;;;;;;14.70;6.27;;;;;;;2.87;74.02;102139.66;126256;1096;104315;-79
2021/03/02 04:17:56;;;;;;;13.30;6.00;;;;;;;2.90;74.72;102140.70;126280;1096;104165;-80
2021/03/02 04:20:25;;;;;;;13.50;6.20;;;;;;;2.92;75.01;102137.48;126370;1096;104134;-79
2021/03/02 04:22:57;;;;;;;13.00;6.07;;;;;;;2.98;75.05;102137.16;126354;1096;104280;-80
2021/03/02 04:25:26;;;;;;;11.57;5.83;;;;;;;3.01;74.43;102133.16;126420;1096;104175;-79
2021/03/02 04:27:55;;;;;;;11.57;5.70;;;;;;;3.07;74.87;102125.03;126266;1096;104118;-78
2021/03/02 04:30:24;;;;;;;13.87;6.50;;;;;;;3.12;74.29;102131.55;126281;1096;104147;-78
2021/03/02 04:32:53;;;;;;;14.57;6.37;;;;;;;3.16;74.91;102125.84;126196;1096;104200;-79
2021/03/02 04:35:23;;;;;;;15.77;6.60;;;;;;;3.19;74.83;102123.53;126264;1096;104175;-79
2021/03/02 04:37:52;;;;;;;15.23;7.07;;;;;;;3.22;74.44;102122.91;126338;1094;104267;-79
2021/03/02 04:40:21;;;;;;;17.70;7.30;;;;;;;3.22;74.90;102125.51;126280;1096;104146;-79
2021/03/02 04:42:50;;;;;;;13.60;6.57;;;;;;;3.19;74.70;102120.04;126343;1096;104162;-78
2021/03/02 04:45:19;;;;;;;13.87;6.80;;;;;;;3.16;74.80;102128.44;126309;1096;104700;-79
2021/03/02 04:47:48;;;;;;;14.80;7.27;;;;;;;3.14;74.83;102119.62;126341;1096;104142;-79
2021/03/02 04:50:17;;;;;;;15.70;7.50;;;;;;;3.12;74.75;102123.77;126408;1096;104281;-79
2021/03/02 04:52:46;;;;;;;16.50;7.60;;;;;;;3.13;74.49;102125.60;126371;1094;102349;-80
2021/03/02 04:55:15;;;;;;;17.00;7.67;;;;;;;3.16;74.33;102112.88;126395;1096;104217;-79
2021/03/02 04:57:48;;;;;;;16.53;7.23;;;;;;;3.18;74.79;102115.61;126379;1096;104152;-80
2021/03/02 05:00:18;;;;;;;16.03;6.83;;;;;;;3.23;74.83;102114.38;126387;1096;104143;-78
2021/03/02 05:02:47;;;;;;;15.70;6.93;;;;;;;3.29;74.72;102114.00;126283;1096;104284;-79
2021/03/02 05:05:16;;;;;;;16.17;7.87;;;;;;;3.34;74.92;102110.16;126233;1096;104239;-79
2021/03/02 05:07:45;;;;;;;15.40;7.03;;;;;;;3.36;74.71;102116.39;126285;1096;104198;-79
2021/03/02 05:10:15;;;;;;;15.87;7.70;;;;;;;3.38;74.62;102114.83;126268;1096;104268;-79
2021/03/02 05:12:44;;;;;;;17.20;6.37;;;;;;;3.39;74.67;102125.34;126218;1096;104271;-79
2021/03/02 05:15:14;;;;;;;12.63;6.23;;;;;;;3.39;75.15;102119.27;126292;1096;104153;-79
2021/03/02 05:17:43;;;;;;;13.30;6.53;;;;;;;3.37;74.21;102119.12;126308;1095;104188;-79
2021/03/02 05:20:13;;;;;;;14.60;6.20;;;;;;;3.40;74.50;102126.28;126281;1096;104220;-79
2021/03/02 05:22:41;;;;;;;14.87;5.67;;;;;;;3.46;74.32;102123.31;126239;1096;104143;-77
2021/03/02 05:25:11;;;;;;;13.07;6.00;;;;;;;3.53;74.24;102129.19;126153;1096;104168;-77
2021/03/02 05:27:40;;;;;;;15.73;6.23;;;;;;;3.60;74.47;102122.89;126256;1096;104389;-76
2021/03/02 05:30:11;;;;;;;16.37;6.40;;;;;;;3.64;73.99;102126.66;126239;1096;104194;-77
2021/03/02 05:32:39;;;;;;;13.13;6.20;;;;;;;3.67;74.16;102132.13;126261;1096;101873;-77
2021/03/02 05:35:11;;;;;;;22.23;7.43;;;;;;;3.68;74.11;102123.58;126239;1096;104213;-77
2021/03/02 05:37:40;;;;;;;15.93;6.33;;;;;;;3.69;74.29;102125.37;126280;1096;104189;-77
2021/03/02 05:40:10;;;;;;;17.87;7.40;;;;;;;3.68;73.86;102131.37;126262;1096;104277;-77
2021/03/02 05:42:39;;;;;;;18.23;7.30;;;;;;;3.67;74.41;102127.84;126218;1096;104175;-77
2021/03/02 05:45:09;;;;;;;16.60;6.77;;;;;;;3.68;74.51;102126.17;126268;1096;104182;-77
2021/03/02 05:47:42;;;;;;;17.53;7.20;;;;;;;3.66;74.40;102128.63;126213;1096;104242;-78
2021/03/02 05:50:13;;;;;;;15.37;7.63;;;;;;;3.68;74.22;102123.58;126169;1096;104169;-78
2021/03/02 05:52:43;;;;;;;19.47;7.60;;;;;;;3.70;74.16;102129.80;126209;1095;104153;-77
2021/03/02 05:55:13;;;;;;;21.53;8.10;;;;;;;3.73;73.95;102135.27;126180;1096;104175;-78
2021/03/02 05:57:43;;;;;;;24.87;11.47;;;;;;;3.73;74.40;102130.98;126248;1096;104172;-78
2021/03/02 06:00:13;;;;;;;28.17;14.27;;;;;;;3.73;73.81;102133.58;126200;1096;104181;-77
2021/03/02 06:02:42;;;;;;;26.10;14.10;;;;;;;3.78;74.73;102127.09;126227;1096;104152;-76
2021/03/02 06:05:14;;;;;;;27.87;13.33;;;;;;;3.84;74.70;102125.84;126200;1096;104309;-76
2021/03/02 06:07:43;;;;;;;25.03;12.70;;;;;;;3.83;73.82;102126.61;126222;1096;104139;-76
2021/03/02 06:10:15;;;;;;;27.77;13.83;;;;;;;3.75;73.62;102123.33;126192;1096;104140;-78
2021/03/02 06:12:54;;;;;;;25.80;13.80;;;;;;;3.72;73.76;102126.55;126188;1096;104191;-78
2021/03/02 06:15:25;;;;;;;29.13;14.50;;;;;;;3.69;74.50;102130.57;126241;1096;104152;-78
2021/03/02 06:18:09;;;;;;;25.40;13.57;;;;;;;3.72;74.08;102120.45;126080;1096;104172;-76
2021/03/02 06:20:41;;;;;;;27.67;14.10;;;;;;;3.79;74.36;102120.24;126111;1096;104153;-77
2021/03/02 06:23:22;;;;;;;25.47;14.20;;;;;;;3.84;74.19;102120.66;126100;1096;104656;-78
2021/03/02 06:25:59;;;;;;;29.73;19.33;;;;;;;3.88;74.15;102121.06;126206;1096;104137;-76
2021/03/02 06:28:45;;;;;;;31.80;22.17;;;;;;;3.89;74.27;102117.66;125902;1099;104152;-76
2021/03/02 06:31:33;;;;;;;29.27;15.48;;;;;;;3.95;74.22;102104.33;126048;1098;104137;-77
2021/03/02 06:34:06;;;;;;;25.37;13.77;;;;;;;4.06;74.26;102108.77;125832;1099;104367;-77
2021/03/02 06:36:39;;;;;;;20.83;11.07;;;;;;;4.16;73.98;102110.50;125897;1099;104233;-77
2021/03/02 06:39:21;;;;;;;26.10;13.10;;;;;;;4.20;74.13;102109.97;126038;1096;104191;-81
2021/03/02 06:41:52;;;;;;;21.73;12.00;;;;;;;4.27;73.48;102106.20;125963;1099;103015;-80
2021/03/02 06:44:30;;;;;;;20.47;11.20;;;;;;;4.28;73.89;102108.94;125886;1099;104175;-80
2021/03/02 06:47:01;;;;;;;21.10;11.00;;;;;;;4.32;74.04;102103.24;125836;1099;104168;-80
2021/03/02 06:49:44;;;;;;;24.60;10.47;;;;;;;4.38;74.00;102101.94;125819;1097;104424;-79
2021/03/02 06:52:19;;;;;;;22.57;9.60;;;;;;;4.54;74.30;102097.30;125213;1099;104342;-80
2021/03/02 06:54:50;;;;;;;21.00;9.50;;;;;;;4.66;74.14;102094.84;125866;1099;104165;-79
2021/03/02 06:57:26;;;;;;;22.37;9.80;;;;;;;4.65;73.71;102087.81;125670;1098;104191;-79
2021/03/02 06:59:57;;;;;;;19.67;9.33;;;;;;;4.60;74.11;102082.22;125732;1096;104270;-81
2021/03/02 07:02:37;;;;;;;22.73;9.80;;;;;;;4.67;74.06;102081.97;125853;1096;104173;-80
2021/03/02 07:05:12;;;;;;;21.97;9.43;;;;;;;4.80;73.73;102077.77;125851;1096;104322;-77
2021/03/02 07:07:43;;;;;;;22.47;9.93;;;;;;;4.90;73.86;102069.97;126001;1096;104291;-79
2021/03/02 07:10:15;;;;;;;26.40;10.67;;;;;;;5.06;73.84;102066.95;125923;1096;104328;-79
2021/03/02 07:12:45;;;;;;;19.17;8.73;;;;;;;5.20;74.04;102058.61;125946;1099;104172;-81
2021/03/02 07:15:17;;;;;;;17.70;7.70;;;;;;;5.32;73.66;102052.58;126078;1096;104624;-79
2021/03/02 07:17:50;;;;;;;19.93;7.90;;;;;;;5.47;73.93;102048.62;126159;1095;104141;-81
2021/03/02 07:20:24;;;;;;;18.37;6.17;;;;;;;5.64;73.92;102034.36;126072;1096;104239;-80
2021/03/02 07:23:00;;;;;;;16.10;6.87;;;;;;;5.82;73.82;102039.22;126190;1096;104290;-81
2021/03/02 07:25:31;;;;;;;14.00;6.20;;;;;;;5.93;73.39;102036.66;125973;1096;104255;-79
2021/03/02 07:28:22;;;;;;;14.67;6.10;;;;;;;6.07;73.67;102037.78;126141;1096;104207;-79
2021/03/02 07:30:54;;;;;;;15.20;5.30;;;;;;;6.16;72.97;102039.31;126086;1096;104172;-78
2021/03/02 07:33:24;;;;;;;10.77;4.83;;;;;;;6.21;72.79;102031.03;126090;1096;104575;-80
2021/03/02 07:35:59;;;;;;;13.45;4.60;;;;;;;6.23;72.51;102023.34;126122;1096;105098;-79
2021/03/02 07:38:29;;;;;;;9.57;4.43;;;;;;;6.33;72.54;102040.59;126044;1096;104137;-78
2021/03/02 07:40:59;;;;;;;12.20;3.80;;;;;;;6.30;72.27;102028.25;126103;1096;104172;-82
2021/03/02 07:43:35;;;;;;;10.90;5.00;;;;;;;6.27;72.39;102031.52;126147;1096;104144;-79
2021/03/02 07:46:39;;;;;;;11.40;5.00;;;;;;;6.26;71.75;102026.18;126049;1096;104220;-79
2021/03/02 07:49:37;;;;;;;10.27;4.70;;;;;;;6.20;71.21;102021.42;126047;1096;104284;-82
2021/03/02 07:52:25;;;;;;;17.07;5.50;;;;;;;6.20;71.91;102024.03;126075;1096;104257;-80
2021/03/02 07:55:21;;;;;;;15.83;5.80;;;;;;;6.18;71.78;102019.47;125982;1096;104208;-82
2021/03/02 07:58:16;;;;;;;13.07;5.87;;;;;;;6.30;71.82;102020.42;126415;1096;104156;-80
2021/03/02 08:00:55;;;;;;;14.63;6.13;;;;;;;6.44;71.80;102004.13;126125;1096;104175;-82
2021/03/02 08:03:27;;;;;;;14.17;5.80;;;;;;;6.59;71.72;102016.52;126029;1096;104156;-82
2021/03/02 08:06:22;;;;;;;13.75;5.65;;;;;;;6.64;71.41;102008.27;126055;1096;104141;-80
2021/03/02 08:08:54;;;;;;;12.27;5.30;;;;;;;6.67;71.37;102015.42;126036;1096;104204;-83
2021/03/02 08:11:40;;;;;;;16.57;6.87;;;;;;;6.57;71.17;102005.06;126136;1096;104204;-81
2021/03/02 08:14:29;;;;;;;;;;;;;;;6.60;70.95;101997.48;126099;1096;104137;-82
2021/03/02 08:17:05;;;;;;;15.83;6.00;;;;;;;6.62;71.14;101988.06;125997;1096;104185;-82
2021/03/02 08:19:46;;;;;;;16.43;6.97;;;;;;;6.69;71.00;101985.13;126068;1096;104213;-81
2021/03/02 08:22:39;;;;;;;16.37;6.47;;;;;;;6.79;70.85;101973.67;126046;1096;103973;-80
2021/03/02 08:25:27;;;;;;;17.20;6.73;;;;;;;6.93;71.27;101977.31;126057;1096;104217;-78
2021/03/02 08:28:01;;;;;;;14.37;6.57;;;;;;;7.00;70.73;101966.54;126079;1096;104194;-82
2021/03/02 08:30:49;;;;;;;16.23;6.73;;;;;;;7.03;70.56;101961.55;126070;1096;104560;-82
2021/03/02 08:33:21;;;;;;;16.40;6.63;;;;;;;7.10;70.36;101947.23;126130;1096;103876;-81
2021/03/02 08:35:52;;;;;;;15.03;6.70;;;;;;;7.13;70.41;101935.30;126188;1096;104261;-80
2021/03/02 08:38:22;;;;;;;16.63;6.87;;;;;;;7.20;70.03;101937.57;126163;1096;104175;-82
2021/03/02 08:40:52;;;;;;;19.50;7.37;;;;;;;7.29;69.94;101932.11;126058;1096;104201;-84
2021/03/02 08:43:24;;;;;;;16.20;7.27;;;;;;;7.36;69.85;101931.73;126139;1096;104178;-81
2021/03/02 08:46:06;;;;;;;18.50;7.30;;;;;;;7.37;70.04;101912.67;126098;1096;104143;-81
2021/03/02 08:48:36;;;;;;;19.87;7.47;;;;;;;7.48;70.05;101902.98;126081;1096;104146;-82
2021/03/02 08:54:20;;;;;;;18.83;7.03;;;;;;;7.85;69.71;101902.95;126272;1096;104137;-83
2021/03/02 08:57:12;;;;;;;15.30;7.10;;;;;;;7.91;69.67;101898.11;126163;1096;102994;-81
2021/03/02 08:59:44;;;;;;;25.57;7.77;;;;;;;8.04;69.60;101888.50;126086;1096;104233;-79
2021/03/02 09:02:14;;;;;;;15.77;6.90;;;;;;;8.16;69.44;101883.20;126078;1096;104166;-82
2021/03/02 09:04:44;;;;;;;15.33;6.87;;;;;;;8.27;69.44;101882.21;126121;1096;104332;-77
2021/03/02 09:07:21;;;;;;;15.80;7.40;;;;;;;8.35;69.34;101885.34;126136;1096;104265;-80
2021/03/02 09:09:50;;;;;;;15.83;7.17;;;;;;;8.45;68.72;101883.48;126114;1096;104137;-77
2021/03/02 09:12:19;;;;;;;15.93;6.93;;;;;;;8.45;68.70;101878.25;126062;1096;104213;-80
2021/03/02 09:14:49;;;;;;;16.10;7.50;;;;;;;8.50;69.21;101881.17;126071;1096;104271;-79
2021/03/02 09:17:25;;;;;;;17.73;7.30;;;;;;;8.58;69.18;101881.67;126010;1096;104149;-77
2021/03/02 09:19:55;;;;;;;20.17;7.93;;;;;;;8.66;68.18;101876.95;126090;1096;104130;-79
2021/03/02 09:22:27;;;;;;;17.57;7.77;;;;;;;8.64;68.25;101880.36;126008;1096;104290;-81
2021/03/02 09:24:58;;;;;;;20.30;7.50;;;;;;;8.64;68.07;101882.08;126113;1096;104182;-81
2021/03/02 09:27:33;;;;;;;21.87;7.93;;;;;;;8.70;68.32;101876.36;126226;1096;104152;-79
2021/03/02 09:30:07;;;;;;;16.00;7.37;;;;;;;8.81;68.11;101867.48;126067;1096;104628;-79
2021/03/02 09:32:37;;;;;;;15.90;6.80;;;;;;;8.90;67.89;101867.18;126192;1096;104175;-78
2021/03/02 09:35:12;;;;;;;15.93;7.30;;;;;;;8.97;67.76;101864.13;126181;1096;104186;-78
2021/03/02 09:37:44;;;;;;;18.23;7.60;;;;;;;9.00;68.02;101857.36;126046;1096;102812;-78
2021/03/02 09:40:15;;;;;;;15.60;6.80;;;;;;;9.05;68.05;101851.52;126170;1096;104342;-79
2021/03/02 09:42:55;;;;;;;19.67;8.03;;;;;;;9.09;68.07;101864.02;126118;1096;104274;-80
2021/03/02 09:45:24;;;;;;;17.07;7.60;;;;;;;9.14;67.19;101854.73;126126;1096;104274;-80
2021/03/02 09:48:06;;;;;;;15.13;7.57;;;;;;;9.20;67.15;101860.35;126101;1096;104300;-81
2021/03/02 09:50:46;;;;;;;19.27;8.17;;;;;;;9.26;67.87;101863.36;126056;1096;104456;-80
2021/03/02 09:53:21;;;;;;;18.50;7.77;;;;;;;9.21;67.39;101861.25;126228;1096;104168;-80
2021/03/02 09:55:59;;;;;;;22.03;8.23;;;;;;;9.23;67.10;101863.16;126608;1096;104213;-78
2021/03/02 09:58:56;;;;;;;22.50;7.40;;;;;;;9.30;66.96;101854.89;126770;1096;103010;-83
2021/03/02 10:01:30;;;;;;;16.20;7.87;;;;;;;9.26;66.86;101851.98;126448;1096;103620;-79
2021/03/02 10:04:10;;;;;;;17.63;7.67;;;;;;;9.24;66.25;101850.96;126008;1096;104198;-80
2021/03/02 10:06:41;;;;;;;18.07;7.63;;;;;;;9.13;66.14;101843.36;125958;1096;104146;-78
2021/03/02 10:09:21;;;;;;;18.40;8.10;;;;;;;9.15;66.27;101841.73;126061;1096;104267;-79
2021/03/02 10:12:09;;;;;;;21.97;9.40;;;;;;;9.23;66.24;101836.08;125999;1096;104143;-78
2021/03/02 10:14:42;;;;;;;18.55;9.05;;;;;;;9.33;66.65;101823.66;126090;1096;104204;-79
2021/03/02 10:17:17;;;;;;;21.23;9.67;;;;;;;9.40;66.32;101824.03;125982;1096;104166;-78
2021/03/02 10:20:06;;;;;;;25.93;11.00;;;;;;;9.45;66.46;101817.34;126073;1096;104226;-79
2021/03/02 10:22:36;;;;;;;20.57;9.93;;;;;;;9.55;66.67;101819.70;126081;1096;104277;-80
2021/03/02 10:25:19;;;;;;;20.43;9.50;;;;;;;9.55;66.57;101817.08;126104;1095;104214;-80
2021/03/02 10:27:57;;;;;;;18.27;7.93;;;;;;;9.52;66.12;101801.17;126086;1096;104309;-81
2021/03/02 10:30:27;;;;;;;17.48;7.60;;;;;;;9.47;65.87;101806.16;126097;1096;104146;-81
2021/03/02 10:32:59;;;;;;;15.70;7.43;;;;;;;9.42;65.26;101791.86;126141;1096;104214;-80
2021/03/02 10:35:31;;;;;;;19.60;8.60;;;;;;;9.41;65.40;101783.90;126052;1096;104261;-81
2021/03/02 10:38:04;;;;;;;20.50;8.13;;;;;;;9.42;65.37;101772.63;126154;1096;101877;-80
2021/03/02 10:40:35;;;;;;;23.60;8.83;;;;;;;9.45;65.15;101762.33;126060;1096;104544;-80
2021/03/02 10:43:07;;;;;;;20.17;8.43;;;;;;;9.45;65.17;101749.23;126047;1096;104204;-79
2021/03/02 10:45:39;;;;;;;22.47;8.70;;;;;;;9.42;65.20;101759.52;126137;1096;101918;-79
2021/03/02 10:48:12;;;;;;;19.63;8.37;;;;;;;9.41;65.14;101752.46;126414;1096;104137;-81
2021/03/02 10:50:51;;;;;;;20.37;9.25;;;;;;;9.50;65.19;101732.05;126012;1096;102433;-78
2021/03/02 10:53:22;;;;;;;19.77;8.67;;;;;;;9.64;64.87;101735.50;125931;1096;104156;-79
2021/03/02 10:55:52;;;;;;;19.57;8.67;;;;;;;9.77;65.06;101727.56;125968;1096;104159;-79
2021/03/02 10:58:26;;;;;;;21.90;8.50;;;;;;;9.86;64.47;101728.09;125994;1096;104187;-78
2021/03/02 11:01:00;;;;;;;18.40;7.83;;;;;;;9.93;64.48;101726.73;125942;1096;104195;-79
2021/03/02 11:03:44;;;;;;;21.13;8.10;;;;;;;10.00;64.40;101721.03;125691;1096;104211;-79
2021/03/02 11:06:15;;;;;;;18.47;7.73;;;;;;;9.99;64.68;101713.08;125689;1097;104278;-82
2021/03/02 11:08:49;;;;;;;17.37;6.97;;;;;;;10.04;63.81;101715.13;125975;1096;104329;-77
2021/03/02 11:11:18;;;;;;;19.85;7.50;;;;;;;10.06;63.61;101708.23;126742;1096;103053;-78
2021/03/02 11:13:49;;;;;;;16.37;6.83;;;;;;;10.03;63.60;101699.30;125599;1099;104156;-78
2021/03/02 11:16:18;;;;;;;14.17;6.57;;;;;;;10.04;63.67;101698.50;125696;1096;104342;-78
2021/03/02 11:18:51;;;;;;;16.90;7.07;;;;;;;10.07;63.34;101698.67;125693;1096;104329;-78
2021/03/02 11:21:41;;;;;;;14.43;6.03;;;;;;;10.02;63.59;101692.23;125641;1096;104211;-78
2021/03/02 11:24:12;;;;;;;13.07;6.20;;;;;;;9.97;63.57;101694.64;125586;1096;104712;-77
2021/03/02 11:26:59;;;;;;;15.87;7.00;;;;;;;10.00;63.46;101688.64;125608;1096;102500;-78
2021/03/02 11:29:53;;;;;;;14.47;6.20;;;;;;;10.07;63.48;101686.45;125933;1096;104153;-79
2021/03/02 11:32:25;;;;;;;15.43;6.90;;;;;;;10.15;63.07;101681.64;125933;1096;104172;-80
2021/03/02 11:34:57;;;;;;;14.40;5.97;;;;;;;10.23;62.96;101672.47;126060;1096;104178;-79
2021/03/02 11:37:26;;;;;;;15.50;6.00;;;;;;;10.31;63.25;101672.01;126148;1096;104160;-80
2021/03/02 11:39:55;;;;;;;13.07;6.10;;;;;;;10.38;62.71;101672.47;126196;1096;104679;-78